Time;durP1;ratioP1;P1;durP2;ratioP2;P2;SDS_P1;SDS_P2;PMS_P1;PMS_P2;Temp;Humidity;BMP_temperature;BMP_pressure;BME280_temperature;BME280_humidity;BME280_pressure;Samples;Min_cycle;Max_cycle;Signal;HPM_P1;HPM_P2
2024/02/28 00:01:38;;;;;;;23.05;12.13;;;;;;;8.10;68.39;94235.53;5004358;28;20025;-78
2024/02/28 00:04:03;;;;;;;24.55;10.70;;;;;;;8.12;68.34;94236.03;5002860;28;20018;-77
2024/02/28 00:06:29;;;;;;;26.45;11.32;;;;;;;8.08;68.00;94243.00;5003957;28;20026;-79
2024/02/28 00:08:54;;;;;;;24.90;12.05;;;;;;;8.04;68.31;94231.38;5004213;28;20089;-78
2024/02/28 00:11:20;;;;;;;24.30;11.65;;;;;;;8.04;68.53;94236.69;5004234;28;20026;-77
2024/02/28 00:13:46;;;;;;;25.65;12.05;;;;;;;7.99;68.66;94239.41;5004162;28;20029;-78
2024/02/28 00:16:11;;;;;;;28.08;10.63;;;;;;;8.04;68.57;94242.00;5003768;28;20053;-78
2024/02/28 00:18:37;;;;;;;25.50;11.43;;;;;;;8.03;68.22;94235.09;5003773;28;20054;-78
2024/02/28 00:21:03;;;;;;;27.50;11.07;;;;;;;7.97;68.44;94237.03;5003433;28;20256;-78
2024/02/28 00:23:29;;;;;;;19.00;9.73;;;;;;;7.99;68.83;94244.72;5003874;28;20033;-78
2024/02/28 00:25:55;;;;;;;25.35;9.38;;;;;;;8.02;68.96;94238.84;5004053;28;20026;-78
2024/02/28 00:28:20;;;;;;;46.47;10.57;;;;;;;8.09;68.89;94241.13;5003782;28;20026;-79
2024/02/28 00:30:46;;;;;;;20.75;10.82;;;;;;;8.11;68.46;94238.97;5003772;28;20330;-79
2024/02/28 00:33:11;;;;;;;21.10;9.82;;;;;;;8.12;68.50;94238.69;5019033;28;20064;-78
2024/02/28 00:35:37;;;;;;;21.08;10.13;;;;;;;8.15;68.44;94240.75;5003802;28;20026;-79
2024/02/28 00:38:02;;;;;;;28.67;10.20;;;;;;;8.11;68.30;94242.41;5003594;28;20321;-79
2024/02/28 00:40:31;;;;;;;24.10;10.27;;;;;;;8.13;67.98;94234.94;5003393;28;20053;-79
2024/02/28 00:42:57;;;;;;;18.58;9.05;;;;;;;8.14;67.87;94235.72;5003631;28;20030;-79
2024/02/28 00:45:23;;;;;;;26.02;10.52;;;;;;;8.12;68.19;94228.06;5003843;28;20272;-79
2024/02/28 00:47:48;;;;;;;24.58;10.73;;;;;;;8.13;68.02;94239.47;5003624;28;20060;-79
2024/02/28 00:50:14;;;;;;;22.17;10.95;;;;;;;8.10;68.31;94235.53;5003155;28;20269;-78
2024/02/28 00:52:40;;;;;;;23.20;10.55;;;;;;;8.12;68.24;94232.56;5003462;28;20042;-78
2024/02/28 00:55:05;;;;;;;17.65;9.10;;;;;;;8.04;68.34;94232.16;5003289;28;20054;-78
2024/02/28 00:57:31;;;;;;;17.95;9.43;;;;;;;8.00;68.39;94233.03;5003347;28;20030;-78
2024/02/28 00:59:57;;;;;;;23.35;10.23;;;;;;;8.00;68.21;94236.47;5003500;28;20273;-78
2024/02/28 01:02:22;;;;;;;18.95;8.85;;;;;;;8.03;68.04;94238.53;5002353;28;20072;-78
2024/02/28 01:04:48;;;;;;;21.30;10.15;;;;;;;8.04;68.46;94245.44;5003127;28;20322;-78
2024/02/28 01:07:14;;;;;;;21.05;10.15;;;;;;;8.01;68.76;94242.56;5003228;28;20041;-78
2024/02/28 01:09:39;;;;;;;25.02;11.40;;;;;;;7.96;69.01;94237.34;5002057;28;20053;-79
2024/02/28 01:12:05;;;;;;;22.70;10.88;;;;;;;7.88;69.62;94237.97;5003233;28;20030;-79
2024/02/28 01:14:30;;;;;;;17.60;9.80;;;;;;;7.83;69.65;94236.94;5003422;28;20029;-79
2024/02/28 01:16:55;;;;;;;23.02;10.57;;;;;;;7.83;69.78;94242.25;5003339;28;20049;-79
2024/02/28 01:19:21;;;;;;;22.65;9.70;;;;;;;7.83;69.51;94246.78;5003442;28;20042;-79
2024/02/28 01:21:46;;;;;;;19.10;9.35;;;;;;;7.87;69.18;94242.47;5003170;28;20026;-79
2024/02/28 01:24:11;;;;;;;20.67;9.38;;;;;;;7.87;69.20;94249.66;5002117;28;20026;-79
2024/02/28 01:26:37;;;;;;;20.70;9.85;;;;;;;7.91;68.90;94243.47;5003217;28;20031;-79
2024/02/28 01:29:02;;;;;;;23.02;8.45;;;;;;;7.89;68.67;94244.84;5003066;28;20056;-79
2024/02/28 01:31:28;;;;;;;19.40;8.75;;;;;;;7.85;68.80;94249.94;5003474;28;20022;-79
2024/02/28 01:33:55;;;;;;;24.38;10.07;;;;;;;7.86;68.50;94248.06;5007005;28;20046;-79
2024/02/28 01:36:20;;;;;;;17.90;7.90;;;;;;;7.81;68.67;94255.00;5006978;28;20034;-79
2024/02/28 01:38:46;;;;;;;22.10;8.88;;;;;;;7.77;68.65;94250.56;5005446;28;20033;-79
2024/02/28 01:41:11;;;;;;;17.15;8.75;;;;;;;7.78;68.69;94260.13;5005445;28;20239;-78
2024/02/28 01:43:36;;;;;;;16.83;8.13;;;;;;;7.83;68.54;94268.00;5006059;28;20028;-79
2024/02/28 01:46:20;;;;;;;20.20;8.50;;;;;;;7.75;68.76;94261.47;5004845;28;20033;-78
2024/02/28 01:48:46;;;;;;;20.13;8.07;;;;;;;7.75;68.75;94258.03;5006106;28;20053;-78
2024/02/28 01:51:12;;;;;;;17.33;8.60;;;;;;;7.68;68.71;94253.06;5006331;28;20089;-78
2024/02/28 01:53:38;;;;;;;16.48;8.70;;;;;;;7.64;68.86;94254.72;5006566;28;20089;-78
2024/02/28 01:56:04;;;;;;;20.23;8.32;;;;;;;7.62;68.94;94257.66;5006378;28;20321;-78
2024/02/28 01:58:29;;;;;;;17.83;9.10;;;;;;;7.64;68.76;94262.69;5006387;28;20018;-78
2024/02/28 02:00:56;;;;;;;16.38;8.15;;;;;;;7.62;68.94;94268.25;5006471;28;20278;-79
2024/02/28 02:03:21;;;;;;;20.33;10.23;;;;;;;7.57;69.33;94270.19;5006513;28;20072;-79
2024/02/28 02:05:47;;;;;;;17.13;9.98;;;;;;;7.56;70.28;94258.00;5006077;28;20046;-78
2024/02/28 02:08:13;;;;;;;23.10;10.35;;;;;;;7.58;70.50;94267.25;5006116;28;20090;-78
2024/02/28 02:10:38;;;;;;;20.77;9.63;;;;;;;7.59;70.60;94263.53;5006241;28;20026;-78
2024/02/28 02:13:07;;;;;;;23.30;9.98;;;;;;;7.52;70.68;94260.44;5006249;28;20317;-78
2024/02/28 02:15:33;;;;;;;20.73;10.63;;;;;;;7.44;70.74;94267.13;5005922;28;20056;-78
2024/02/28 02:17:58;;;;;;;26.23;10.30;;;;;;;7.50;70.66;94259.91;5005975;28;20030;-78
2024/02/28 02:20:26;;;;;;;19.88;9.52;;;;;;;7.52;70.38;94257.00;5006129;28;20056;-78
2024/02/28 02:22:53;;;;;;;23.75;9.32;;;;;;;7.55;70.22;94262.53;5005924;28;20367;-78
2024/02/28 02:25:18;;;;;;;22.42;9.90;;;;;;;7.54;70.03;94255.63;5005832;28;20022;-78
2024/02/28 02:27:44;;;;;;;26.38;10.60;;;;;;;7.54;69.84;94250.31;5005898;28;20025;-78
2024/02/28 02:30:10;;;;;;;20.80;11.13;;;;;;;7.52;70.07;94252.47;5005718;28;20022;-78
2024/02/28 02:32:35;;;;;;;25.63;10.50;;;;;;;7.46;70.25;94252.81;5005854;28;20269;-78
2024/02/28 02:35:00;;;;;;;22.50;11.63;;;;;;;7.51;69.88;94250.09;5005649;28;20026;-78
2024/02/28 02:37:26;;;;;;;21.70;10.93;;;;;;;7.50;69.90;94257.25;5005519;28;20029;-78
2024/02/28 02:39:52;;;;;;;18.42;10.13;;;;;;;7.50;69.74;94261.78;5004551;28;20022;-78
2024/02/28 02:42:17;;;;;;;16.65;9.18;;;;;;;7.48;69.60;94266.59;5005490;28;20240;-78
2024/02/28 02:44:43;;;;;;;18.80;9.60;;;;;;;7.45;69.42;94252.03;5005454;28;20081;-78
2024/02/28 02:47:08;;;;;;;21.05;9.23;;;;;;;7.39;69.62;94269.88;5005681;28;20063;-78
2024/02/28 02:49:33;;;;;;;18.88;9.07;;;;;;;7.35;70.00;94262.75;5005381;28;20093;-78
2024/02/28 02:51:59;;;;;;;18.60;9.63;;;;;;;7.35;70.38;94270.72;5004301;28;20048;-79
2024/02/28 02:54:24;;;;;;;25.58;10.02;;;;;;;7.36;70.75;94269.63;5004307;28;20220;-79
2024/02/28 02:56:49;;;;;;;23.15;10.05;;;;;;;7.33;70.75;94270.22;5005440;28;20026;-79
2024/02/28 02:59:15;;;;;;;17.73;9.68;;;;;;;7.30;70.67;94260.16;5005033;28;20045;-78
2024/02/28 03:01:40;;;;;;;21.25;9.60;;;;;;;7.27;70.62;94252.78;5005069;28;20026;-78
2024/02/28 03:04:06;;;;;;;17.05;9.35;;;;;;;7.21;70.89;94262.63;5005268;28;20085;-78
2024/02/28 03:06:32;;;;;;;19.27;8.15;;;;;;;7.26;70.71;94257.25;5004040;28;20030;-78
2024/02/28 03:08:57;;;;;;;20.65;8.95;;;;;;;7.26;70.64;94257.25;5003837;28;20026;-78
2024/02/28 03:11:23;;;;;;;23.08;8.55;;;;;;;7.28;70.36;94263.06;5005130;28;20068;-80
2024/02/28 03:13:48;;;;;;;23.52;9.63;;;;;;;7.19;70.88;94264.78;5005167;28;20037;-80
2024/02/28 03:16:14;;;;;;;16.58;8.30;;;;;;;7.11;71.02;94260.09;5003853;28;20034;-79
2024/02/28 03:18:39;;;;;;;17.42;8.10;;;;;;;7.14;70.76;94264.81;5004937;28;20269;-79
2024/02/28 03:21:05;;;;;;;16.92;9.98;;;;;;;7.12;71.10;94259.00;5004690;28;20098;-79
2024/02/28 03:23:30;;;;;;;25.42;10.05;;;;;;;7.16;71.19;94265.31;5004864;28;20049;-78
2024/02/28 03:25:55;;;;;;;22.17;10.27;;;;;;;7.19;71.09;94265.56;5004943;28;20049;-79
2024/02/28 03:28:21;;;;;;;16.38;8.65;;;;;;;7.14;71.19;94264.81;5004914;28;20030;-79
2024/02/28 03:30:46;;;;;;;17.02;9.35;;;;;;;7.08;71.39;94273.91;5004685;28;20042;-79
2024/02/28 03:33:12;;;;;;;20.48;9.40;;;;;;;7.05;71.93;94269.94;5003573;28;20094;-79
2024/02/28 03:35:37;;;;;;;22.52;10.13;;;;;;;7.03;72.18;94267.56;5003328;28;20025;-78
2024/02/28 03:38:03;;;;;;;20.00;9.57;;;;;;;7.00;72.09;94276.09;5004452;28;20072;-79
2024/02/28 03:40:28;;;;;;;22.58;10.02;;;;;;;7.00;71.93;94273.44;5004714;28;20034;-79
2024/02/28 03:42:54;;;;;;;14.85;8.38;;;;;;;7.02;71.88;94281.09;5004759;28;20097;-79
2024/02/28 03:45:19;;;;;;;22.35;10.07;;;;;;;6.98;71.71;94275.59;5004329;28;20045;-78
2024/02/28 03:47:45;;;;;;;18.15;9.23;;;;;;;6.95;72.04;94281.44;5004560;28;20037;-77
2024/02/28 03:50:10;;;;;;;25.98;10.20;;;;;;;7.00;71.93;94278.75;5004094;28;20054;-78
2024/02/28 03:52:36;;;;;;;26.15;11.48;;;;;;;7.01;71.97;94290.91;5004548;28;20057;-77
2024/02/28 03:55:04;;;;;;;23.30;10.32;;;;;;;6.93;72.52;94278.28;5003922;28;20053;-78
2024/02/28 03:57:30;;;;;;;19.92;9.98;;;;;;;6.88;72.35;94275.69;5004124;28;20037;-78
2024/02/28 03:59:55;;;;;;;21.52;9.60;;;;;;;6.94;72.24;94290.47;5004051;28;20034;-79
2024/02/28 04:02:20;;;;;;;19.83;9.38;;;;;;;6.82;72.47;94285.53;5004071;28;20388;-79
2024/02/28 04:04:46;;;;;;;20.13;10.02;;;;;;;6.90;72.36;94285.97;5004012;28;20313;-79
2024/02/28 04:07:11;;;;;;;24.30;10.00;;;;;;;6.84;72.27;94277.31;5004085;28;20033;-79
2024/02/28 04:09:37;;;;;;;23.08;10.98;;;;;;;6.74;72.90;94274.75;5002990;28;20073;-79
2024/02/28 04:12:06;;;;;;;23.65;12.18;;;;;;;6.78;72.83;94281.06;5019284;28;20101;-78
2024/02/28 04:14:31;;;;;;;23.90;12.65;;;;;;;6.76;73.13;94272.63;5002581;28;20366;-80
2024/02/28 04:17:00;;;;;;;30.33;12.50;;;;;;;6.81;73.25;94273.34;5004120;28;20026;-81
2024/02/28 04:19:26;;;;;;;22.60;11.55;;;;;;;6.83;73.59;94273.06;5003972;28;20029;-80
2024/02/28 04:21:51;;;;;;;29.63;11.75;;;;;;;6.80;73.54;94271.00;5003868;28;20033;-79
2024/02/28 04:24:17;;;;;;;24.45;11.90;;;;;;;6.73;73.67;94268.63;5003769;28;20018;-80
2024/02/28 04:26:42;;;;;;;24.38;10.85;;;;;;;6.75;73.60;94271.81;5002443;28;20029;-78
2024/02/28 04:29:13;;;;;;;19.08;8.50;;;;;;;6.76;73.04;94267.31;5002502;28;20014;-79
2024/02/28 04:31:39;;;;;;;21.92;10.15;;;;;;;6.70;73.43;94271.09;5003631;28;20030;-79
2024/02/28 04:34:04;;;;;;;17.48;9.43;;;;;;;6.72;73.17;94267.06;5003613;28;20026;-79
2024/02/28 04:36:29;;;;;;;25.35;9.77;;;;;;;6.73;73.17;94267.84;5003932;28;20053;-79
2024/02/28 04:38:55;;;;;;;22.83;10.80;;;;;;;6.76;73.42;94270.75;5003651;28;20309;-80
2024/02/28 04:41:20;;;;;;;19.92;10.10;;;;;;;6.82;73.23;94271.50;5003603;28;20195;-79
2024/02/28 04:43:46;;;;;;;22.85;9.77;;;;;;;6.88;73.29;94274.88;5003574;28;20029;-79
2024/02/28 04:46:11;;;;;;;24.58;10.38;;;;;;;6.82;73.14;94274.16;5003655;28;20073;-79
2024/02/28 04:48:37;;;;;;;20.80;10.00;;;;;;;6.72;73.70;94275.03;5003263;28;20233;-79
2024/02/28 04:51:02;;;;;;;23.08;10.23;;;;;;;6.72;73.96;94280.31;5003437;28;20018;-79
2024/02/28 04:53:28;;;;;;;19.50;10.02;;;;;;;6.68;73.96;94266.06;5003508;28;20022;-79
2024/02/28 04:55:53;;;;;;;24.33;11.90;;;;;;;6.71;73.96;94278.72;5003495;28;20026;-79
2024/02/28 04:58:18;;;;;;;21.52;10.43;;;;;;;6.74;73.77;94282.69;5003370;28;20057;-79
2024/02/28 05:00:44;;;;;;;22.15;11.77;;;;;;;6.74;73.71;94286.13;5003077;28;20029;-79
2024/02/28 05:03:10;;;;;;;21.10;10.50;;;;;;;6.79;73.27;94290.59;5003357;28;20022;-79
2024/02/28 05:05:35;;;;;;;22.60;10.60;;;;;;;6.79;73.69;94295.88;5003263;28;20262;-79
2024/02/28 05:08:01;;;;;;;24.10;10.07;;;;;;;6.74;73.28;94291.44;5006240;28;20087;-78
2024/02/28 05:10:26;;;;;;;20.13;11.05;;;;;;;6.70;73.59;94295.72;5007315;28;20037;-78
2024/02/28 05:12:51;;;;;;;19.00;9.80;;;;;;;6.69;73.95;94293.31;5007475;28;20077;-78
2024/02/28 05:15:17;;;;;;;24.42;11.40;;;;;;;6.64;74.08;94302.13;5007266;28;20041;-79
2024/02/28 05:17:42;;;;;;;22.55;12.40;;;;;;;6.57;75.19;94302.44;5007132;28;20034;-80
2024/02/28 05:20:09;;;;;;;21.48;11.25;;;;;;;6.54;75.36;94302.97;5007238;28;20022;-79
2024/02/28 05:22:34;;;;;;;27.58;12.50;;;;;;;6.53;75.71;94305.88;5007074;28;20084;-80
2024/02/28 05:24:59;;;;;;;21.95;11.20;;;;;;;6.45;75.78;94309.91;5006927;28;20316;-80
2024/02/28 05:27:25;;;;;;;29.13;12.27;;;;;;;6.39;76.17;94317.13;5007132;28;20026;-79
2024/02/28 05:29:50;;;;;;;24.65;12.35;;;;;;;6.38;76.67;94320.81;5006982;28;20021;-80
2024/02/28 05:32:16;;;;;;;29.95;14.43;;;;;;;6.37;76.50;94329.03;5007025;28;20023;-80
2024/02/28 05:34:42;;;;;;;31.88;13.25;;;;;;;6.37;76.66;94321.91;5006875;28;20018;-80
2024/02/28 05:37:07;;;;;;;30.70;14.55;;;;;;;6.41;76.57;94324.75;5006630;28;20024;-79
2024/02/28 05:39:33;;;;;;;34.08;14.38;;;;;;;6.51;76.30;94332.63;5006680;28;20022;-77
2024/02/28 05:41:58;;;;;;;29.92;14.10;;;;;;;6.54;76.23;94340.06;5006669;28;20026;-77
2024/02/28 05:44:27;;;;;;;24.90;12.15;;;;;;;6.54;76.37;94340.06;5006698;28;20097;-77
2024/02/28 05:46:52;;;;;;;32.28;13.75;;;;;;;6.57;76.59;94344.81;5005526;28;20023;-77
2024/02/28 05:49:17;;;;;;;33.75;13.25;;;;;;;6.53;76.61;94338.47;5006473;28;20038;-77
2024/02/28 05:51:44;;;;;;;31.42;14.20;;;;;;;6.61;76.55;94347.69;5006563;28;20022;-77
2024/02/28 05:54:10;;;;;;;32.55;14.48;;;;;;;6.67;76.27;94348.44;5006499;28;20068;-77
2024/02/28 05:56:35;;;;;;;28.85;13.63;;;;;;;6.68;76.19;94344.75;5006371;28;20046;-77
2024/02/28 05:59:00;;;;;;;31.73;14.13;;;;;;;6.73;75.72;94353.41;5006400;28;20019;-78
2024/02/28 06:01:26;;;;;;;30.45;13.65;;;;;;;6.74;75.64;94359.53;5006534;28;20217;-78
2024/02/28 06:03:52;;;;;;;29.83;13.80;;;;;;;6.73;75.62;94347.34;5006556;28;20045;-78
2024/02/28 06:06:18;;;;;;;28.85;13.75;;;;;;;6.80;75.77;94363.72;5006257;28;20026;-78
2024/02/28 06:08:44;;;;;;;33.08;15.73;;;;;;;6.84;75.52;94359.44;5006039;28;20018;-80
2024/02/28 06:11:09;;;;;;;41.05;16.10;;;;;;;6.78;76.13;94360.56;5006161;28;20042;-78
2024/02/28 06:13:35;;;;;;;40.22;16.48;;;;;;;6.82;76.24;94366.88;5006308;28;20097;-78
2024/02/28 06:16:01;;;;;;;33.85;17.65;;;;;;;6.85;76.25;94360.22;5006088;28;20026;-77
2024/02/28 06:18:33;;;;;;;35.67;17.75;;;;;;;6.88;76.47;94371.09;5005628;28;20031;-77
2024/02/28 06:20:59;;;;;;;39.33;17.83;;;;;;;6.90;76.86;94365.47;5006156;28;20041;-79
2024/02/28 06:23:24;;;;;;;38.58;17.77;;;;;;;7.00;76.96;94368.03;5006064;28;20364;-80
2024/02/28 06:25:50;;;;;;;37.40;19.42;;;;;;;7.10;76.70;94372.47;5006109;28;20034;-79
2024/02/28 06:28:15;;;;;;;36.55;18.60;;;;;;;7.22;76.66;94376.38;5005661;28;20194;-85
2024/02/28 06:30:43;;;;;;;39.90;18.42;;;;;;;7.32;76.45;94379.97;5005972;28;20026;-84
2024/02/28 06:33:08;;;;;;;42.17;19.73;;;;;;;7.41;76.09;94378.31;5005725;28;20022;-88
2024/02/28 06:35:34;;;;;;;44.10;19.40;;;;;;;7.47;76.46;94376.38;5005908;28;20317;-82
2024/02/28 06:37:59;;;;;;;43.05;19.88;;;;;;;7.59;76.23;94368.84;5005575;28;20041;-80
2024/02/28 06:40:25;;;;;;;41.08;19.20;;;;;;;7.69;75.46;94374.03;5005851;28;20050;-83
2024/02/28 06:42:50;;;;;;;36.75;18.85;;;;;;;7.71;75.46;94371.88;5020756;28;20036;-77
2024/02/28 06:45:15;;;;;;;41.58;18.90;;;;;;;7.82;74.74;94380.56;5005542;28;20048;-79
2024/02/28 06:47:41;;;;;;;41.38;20.10;;;;;;;7.91;74.21;94375.41;5005246;28;20033;-78
2024/02/28 06:50:07;;;;;;;50.92;20.58;;;;;;;7.98;74.32;94373.22;5005374;28;20096;-78
2024/02/28 06:52:34;;;;;;;51.97;19.58;;;;;;;8.04;74.20;94378.16;5003775;28;20027;-78
2024/02/28 06:55:03;;;;;;;44.60;19.75;;;;;;;8.16;73.73;94383.06;5004011;28;20320;-77
2024/02/28 06:57:28;;;;;;;41.47;19.75;;;;;;;8.17;73.42;94376.69;5003543;28;20029;-77
2024/02/28 06:59:54;;;;;;;39.85;19.98;;;;;;;8.28;73.21;94379.19;5003326;28;20026;-77
2024/02/28 07:02:19;;;;;;;43.33;20.23;;;;;;;8.37;73.04;94372.19;5004233;28;20097;-77
2024/02/28 07:04:45;;;;;;;45.72;19.95;;;;;;;8.37;73.23;94377.50;5004631;28;20045;-77
2024/02/28 07:07:10;;;;;;;57.75;20.60;;;;;;;8.42;72.96;94380.09;5004361;28;20026;-77
2024/02/28 07:09:37;;;;;;;49.60;18.95;;;;;;;8.43;73.03;94385.16;5004632;28;20031;-77
2024/02/28 07:12:03;;;;;;;43.63;19.35;;;;;;;8.54;72.51;94385.78;5004843;28;20093;-77
2024/02/28 07:14:28;;;;;;;49.35;20.42;;;;;;;8.61;72.40;94380.13;5003214;28;20026;-77
2024/02/28 07:16:54;;;;;;;47.45;21.13;;;;;;;8.73;72.04;94382.34;5002709;28;20093;-77
2024/02/28 07:19:20;;;;;;;38.83;17.88;;;;;;;8.80;71.21;94380.13;5004410;28;20098;-77
2024/02/28 07:21:45;;;;;;;39.85;19.30;;;;;;;8.86;70.78;94378.19;5004637;28;20045;-77
2024/02/28 07:24:10;;;;;;;39.67;18.02;;;;;;;8.83;70.40;94380.34;5004330;28;20064;-77
2024/02/28 07:26:36;;;;;;;43.70;17.95;;;;;;;8.86;69.94;94378.19;5004412;28;20046;-77
2024/02/28 07:29:02;;;;;;;44.08;17.90;;;;;;;8.94;70.04;94374.88;5003906;28;20272;-77
2024/02/28 07:31:27;;;;;;;38.70;18.50;;;;;;;9.10;69.43;94388.69;5004591;28;20069;-78
2024/02/28 07:33:53;;;;;;;35.78;17.48;;;;;;;9.22;68.88;94381.84;5004584;28;20061;-77
2024/02/28 07:36:19;;;;;;;36.47;16.17;;;;;;;9.33;68.45;94385.13;5004519;28;20030;-77
2024/02/28 07:38:44;;;;;;;43.42;17.77;;;;;;;9.46;67.75;94382.78;5004508;28;20097;-77
2024/02/28 07:41:10;;;;;;;39.00;16.63;;;;;;;9.57;67.77;94390.31;5004667;28;20034;-78
2024/02/28 07:43:38;;;;;;;32.03;17.40;;;;;;;9.76;67.39;94389.44;5004473;28;20038;-78
2024/02/28 07:46:08;;;;;;;29.13;16.48;;;;;;;9.91;66.96;94391.84;5004276;28;20022;-77
2024/02/28 07:48:33;;;;;;;34.35;17.45;;;;;;;10.11;66.09;94384.53;5003995;28;20049;-77
2024/02/28 07:50:59;;;;;;;36.88;16.83;;;;;;;10.30;65.51;94382.56;5003063;28;20014;-78
2024/02/28 07:53:24;;;;;;;37.03;17.70;;;;;;;10.48;64.78;94383.50;5004304;28;20022;-78
2024/02/28 07:55:50;;;;;;;40.20;17.75;;;;;;;10.68;64.33;94392.97;5003198;28;20018;-77
2024/02/28 07:58:16;;;;;;;35.33;17.13;;;;;;;10.86;63.46;94377.91;5003983;28;20018;-77
2024/02/28 08:00:43;;;;;;;40.17;16.02;;;;;;;11.07;62.61;94388.09;5003950;28;20232;-77
2024/02/28 08:03:09;;;;;;;44.60;15.13;;;;;;;10.91;61.76;94377.78;5003940;28;20240;-77
2024/02/28 08:05:38;;;;;;;42.50;16.17;;;;;;;11.12;61.84;94382.66;5003878;28;20029;-77
2024/02/28 08:08:05;;;;;;;31.83;15.73;;;;;;;11.33;61.75;94377.59;5003955;28;20027;-77
2024/02/28 08:10:30;;;;;;;40.90;15.68;;;;;;;11.51;61.49;94373.16;5003830;28;20064;-77
2024/02/28 08:12:56;;;;;;;36.50;14.63;;;;;;;11.70;59.50;94375.59;5003999;28;20026;-77
2024/02/28 08:15:21;;;;;;;30.77;14.35;;;;;;;11.78;58.89;94374.84;5003865;28;20022;-77
2024/02/28 08:17:47;;;;;;;32.20;15.65;;;;;;;11.77;58.99;94370.63;5003595;28;20089;-77
2024/02/28 08:20:12;;;;;;;37.72;16.23;;;;;;;11.70;58.64;94364.94;5003609;28;20053;-77
2024/02/28 08:22:38;;;;;;;46.05;16.38;;;;;;;11.65;59.20;94377.31;5004276;28;20272;-77
2024/02/28 08:25:04;;;;;;;39.50;18.17;;;;;;;11.78;59.25;94388.22;5003743;28;20029;-77
2024/02/28 08:27:29;;;;;;;32.22;14.40;;;;;;;11.91;58.96;94383.91;5003534;28;20133;-77
2024/02/28 08:29:55;;;;;;;34.88;14.93;;;;;;;12.06;58.75;94372.81;5003851;28;20257;-77
2024/02/28 08:32:20;;;;;;;35.15;16.40;;;;;;;12.27;58.25;94374.91;5003561;28;20018;-77
2024/02/28 08:34:46;;;;;;;33.33;15.15;;;;;;;12.42;58.18;94363.78;5003648;28;20069;-77
2024/02/28 08:37:12;;;;;;;29.90;15.52;;;;;;;12.62;58.32;94363.19;5003341;28;20030;-78
2024/02/28 08:39:37;;;;;;;34.17;14.60;;;;;;;12.79;57.58;94369.66;5003665;28;20026;-80
2024/02/28 08:42:05;;;;;;;29.45;14.93;;;;;;;12.93;57.15;94364.94;5003411;28;20018;-80
2024/02/28 08:44:31;;;;;;;33.35;14.45;;;;;;;13.03;55.91;94364.63;5002656;28;20022;-81
2024/02/28 08:46:56;;;;;;;31.00;14.70;;;;;;;12.97;55.94;94368.56;5005197;28;20140;-80
2024/02/28 08:49:22;;;;;;;33.15;13.98;;;;;;;12.97;55.14;94365.09;5003573;28;20344;-80
2024/02/28 08:51:48;;;;;;;23.73;13.77;;;;;;;12.85;55.53;94360.38;5003500;28;20023;-80
2024/02/28 08:54:13;;;;;;;32.63;13.93;;;;;;;12.77;56.00;94359.25;5003326;28;20026;-80
2024/02/28 08:56:39;;;;;;;31.13;14.73;;;;;;;12.69;56.07;94367.28;5003473;28;20098;-80
2024/02/28 08:59:04;;;;;;;27.30;14.38;;;;;;;12.70;56.26;94363.50;5003109;28;20057;-79
2024/02/28 09:01:29;;;;;;;31.70;14.55;;;;;;;12.75;56.22;94363.34;5003410;28;20062;-80
2024/02/28 09:03:55;;;;;;;37.65;16.35;;;;;;;12.73;56.14;94360.22;5003338;28;20019;-80
2024/02/28 09:06:20;;;;;;;27.60;13.82;;;;;;;12.74;56.03;94361.75;5003304;28;20022;-80
2024/02/28 09:08:45;;;;;;;46.55;16.75;;;;;;;12.70;56.38;94360.81;5003223;28;20023;-80
2024/02/28 09:11:11;;;;;;;27.35;13.90;;;;;;;12.71;56.25;94365.88;5002012;28;20118;-79
2024/02/28 09:13:36;;;;;;;27.67;14.48;;;;;;;12.77;56.00;94372.63;5002887;28;20034;-81
2024/02/28 09:16:02;;;;;;;35.42;16.35;;;;;;;12.91;55.95;94364.47;5001107;28;20041;-79
2024/02/28 09:18:28;;;;;;;33.17;14.82;;;;;;;12.95;56.16;94369.97;5002273;28;20041;-80
2024/02/28 09:20:53;;;;;;;40.60;16.08;;;;;;;13.05;56.23;94369.66;5001673;28;20058;-81
2024/02/28 09:23:19;;;;;;;30.48;14.40;;;;;;;13.21;55.15;94364.63;5001923;28;20285;-81
2024/02/28 09:25:44;;;;;;;32.92;13.65;;;;;;;13.38;54.70;94359.25;5001170;28;20038;-81
2024/02/28 09:28:12;;;;;;;28.80;14.30;;;;;;;13.56;54.75;94362.69;5001185;28;20023;-81
2024/02/28 09:30:38;;;;;;;34.90;15.45;;;;;;;13.77;53.50;94356.63;5000919;28;20022;-81
2024/02/28 09:33:03;;;;;;;38.83;17.30;;;;;;;13.87;52.91;94356.28;5002370;28;20198;-81
2024/02/28 09:35:29;;;;;;;35.15;15.20;;;;;;;13.81;53.68;94355.66;5002745;28;20106;-81
2024/02/28 09:37:54;;;;;;;40.08;16.33;;;;;;;13.98;54.07;94352.16;5002697;28;20037;-81
2024/02/28 09:40:20;;;;;;;30.35;15.23;;;;;;;14.18;53.95;94339.88;5002794;28;20018;-81
2024/02/28 09:42:56;;;;;;;32.72;16.05;;;;;;;14.28;52.00;94344.09;5002761;28;20018;-81
2024/02/28 09:45:22;;;;;;;31.40;14.50;;;;;;;14.41;50.00;94344.97;5003208;28;20026;-82
2024/02/28 09:47:48;;;;;;;37.70;14.10;;;;;;;14.48;49.96;94342.56;5002789;28;20022;-82
2024/02/28 09:50:14;;;;;;;32.78;15.52;;;;;;;14.57;50.33;94337.97;5002633;28;20265;-82
2024/02/28 09:52:40;;;;;;;28.45;13.48;;;;;;;14.76;50.04;94334.81;5003661;28;20056;-82
2024/02/28 09:55:05;;;;;;;37.50;14.27;;;;;;;14.95;49.65;94337.03;5005373;28;20030;-82
2024/02/28 09:57:33;;;;;;;28.85;15.15;;;;;;;15.14;49.37;94333.88;5006308;28;20033;-83
2024/02/28 10:00:00;;;;;;;42.92;15.73;;;;;;;15.05;48.97;94341.22;5006395;28;20034;-82
2024/02/28 10:02:27;;;;;;;27.85;13.02;;;;;;;15.17;48.25;94332.44;5006541;28;20068;-81
2024/02/28 10:04:55;;;;;;;35.40;15.40;;;;;;;15.03;48.07;94338.09;5006508;28;20222;-81
2024/02/28 10:07:21;;;;;;;43.95;15.80;;;;;;;15.17;48.32;94332.44;5006373;28;20038;-82
2024/02/28 10:09:47;;;;;;;26.10;14.38;;;;;;;15.37;48.44;94326.25;5006117;28;20034;-82
2024/02/28 10:12:12;;;;;;;33.80;13.63;;;;;;;15.56;48.46;94323.03;5006088;28;20202;-81
2024/02/28 10:14:38;;;;;;;48.92;16.38;;;;;;;15.75;47.44;94319.88;5006144;28;20038;-81
2024/02/28 10:17:04;;;;;;;28.48;13.55;;;;;;;15.78;47.30;94318.41;5006120;28;20026;-81
2024/02/28 10:19:30;;;;;;;32.00;14.63;;;;;;;15.92;46.60;94320.78;5006008;28;20097;-81
2024/02/28 10:21:56;;;;;;;32.17;14.18;;;;;;;16.09;46.40;94317.84;5006191;28;20022;-81
2024/02/28 10:24:24;;;;;;;28.50;15.02;;;;;;;16.23;46.38;94317.50;5005803;28;20321;-81
2024/02/28 10:26:55;;;;;;;36.80;14.98;;;;;;;16.39;45.99;94306.84;5006003;28;20030;-81
2024/02/28 10:29:24;;;;;;;32.03;14.55;;;;;;;16.53;46.26;94303.81;5005845;28;20198;-81
2024/02/28 10:31:50;;;;;;;26.80;13.70;;;;;;;16.64;45.36;94296.81;5005782;28;20053;-81
2024/02/28 10:34:19;;;;;;;30.40;13.32;;;;;;;16.68;44.11;94292.31;5005742;28;20272;-81
2024/02/28 10:36:45;;;;;;;28.05;12.18;;;;;;;16.73;44.30;94292.09;5005788;28;20184;-81
2024/02/28 10:39:11;;;;;;;25.48;12.45;;;;;;;16.82;44.68;94297.38;5005553;28;20022;-81
2024/02/28 10:41:41;;;;;;;31.48;12.73;;;;;;;16.94;44.27;94291.94;5005599;28;20053;-82
2024/02/28 10:44:08;;;;;;;32.35;11.60;;;;;;;17.01;43.91;94292.13;5005542;28;20038;-81
2024/02/28 10:46:35;;;;;;;26.45;10.52;;;;;;;17.08;42.50;94285.38;5005546;28;20018;-81
2024/02/28 10:49:00;;;;;;;24.30;11.40;;;;;;;17.09;42.75;94278.88;5005392;28;20036;-81
2024/02/28 10:51:26;;;;;;;22.27;9.63;;;;;;;17.09;42.73;94276.94;5005700;28;20042;-82
2024/02/28 10:54:09;;;;;;;22.35;10.57;;;;;;;17.13;42.63;94279.75;5005685;28;20189;-82
2024/02/28 10:56:35;;;;;;;22.63;9.98;;;;;;;16.94;41.19;94278.47;5020363;28;20033;-81
2024/02/28 10:59:02;;;;;;;18.95;9.10;;;;;;;17.09;42.08;94278.88;5005418;28;20030;-82
2024/02/28 11:01:28;;;;;;;17.80;9.35;;;;;;;17.27;42.11;94280.13;5005428;28;20065;-82
2024/02/28 11:03:54;;;;;;;16.48;7.18;;;;;;;17.41;41.29;94280.50;5005413;28;20026;-82
2024/02/28 11:06:21;;;;;;;16.80;7.15;;;;;;;17.39;38.67;94274.66;5005263;28;20255;-81
2024/02/28 11:08:56;;;;;;;17.38;7.50;;;;;;;17.46;39.93;94268.66;5005107;28;20048;-81
2024/02/28 11:11:21;;;;;;;17.73;7.25;;;;;;;17.71;40.26;94266.59;5004024;28;20038;-81
2024/02/28 11:13:55;;;;;;;18.92;7.03;;;;;;;17.91;38.83;94272.09;5005187;28;20069;-81
2024/02/28 11:16:31;;;;;;;15.00;8.00;;;;;;;17.91;37.69;94261.31;5020178;28;20022;-81
2024/02/28 11:18:57;;;;;;;23.15;7.68;;;;;;;17.86;37.69;94253.50;5005024;28;20141;-81